Time;durP1;ratioP1;P1;durP2;ratioP2;P2;SDS_P1;SDS_P2;PMS_P1;PMS_P2;Temp;Humidity;BMP_temperature;BMP_pressure;BME280_temperature;BME280_humidity;BME280_pressure;Samples;Min_cycle;Max_cycle;Signal;HPM_P1;HPM_P2
2021/07/14 00:00:26;;;;;;;12.85;11.43;;;;;;;21.06;65.75;94950.22;5110596;28;20516;-67
2021/07/14 00:02:54;;;;;;;17.08;12.20;;;;;;;20.97;66.15;94957.28;5108790;28;20039;-66
2021/07/14 00:05:23;;;;;;;20.23;12.85;;;;;;;20.86;67.04;94956.69;5107559;28;20050;-67
2021/07/14 00:07:51;;;;;;;15.38;11.40;;;;;;;20.72;67.21;94938.13;5106783;28;20046;-67
2021/07/14 00:10:22;;;;;;;13.38;11.88;;;;;;;20.87;67.09;94952.97;5106062;28;20437;-68
2021/07/14 00:24:04;;;;;;;23.92;12.52;;;;;;;20.70;67.67;94958.81;5110232;27;20047;-67
2021/07/14 00:26:32;;;;;;;21.33;13.43;;;;;;;20.67;68.18;94951.47;5110004;28;20155;-67
2021/07/14 00:29:01;;;;;;;24.95;12.52;;;;;;;20.65;68.51;94950.94;5112642;27;20046;-67
2021/07/14 00:31:27;;;;;;;21.00;11.65;;;;;;;20.77;67.51;94953.13;5093796;28;20058;-67
2021/07/14 00:33:56;;;;;;;20.02;11.70;;;;;;;20.86;67.30;94955.91;5111421;27;20050;-67
2021/07/14 00:36:22;;;;;;;21.00;13.40;;;;;;;20.85;67.47;94959.59;5112398;27;20055;-67
2021/07/14 00:38:49;;;;;;;20.48;12.38;;;;;;;20.79;67.04;94945.69;5109513;27;20046;-67
2021/07/14 00:41:17;;;;;;;15.23;11.85;;;;;;;20.91;67.14;94958.47;5113127;27;20032;-67
2021/07/14 00:43:44;;;;;;;17.30;12.10;;;;;;;20.92;67.99;94955.53;5111299;27;20038;-67
2021/07/14 00:46:20;;;;;;;15.38;11.75;;;;;;;20.81;67.61;94960.22;5112665;27;20050;-67
2021/07/14 00:48:49;;;;;;;19.73;11.00;;;;;;;20.79;67.57;94957.06;5111246;27;20126;-67
2021/07/14 00:51:17;;;;;;;13.40;11.95;;;;;;;20.88;66.92;94959.03;5111786;27;20039;-67
2021/07/14 00:53:44;;;;;;;13.73;12.32;;;;;;;20.90;66.59;94954.22;5110580;27;20032;-67
2021/07/14 00:56:11;;;;;;;15.43;12.48;;;;;;;20.95;67.04;94960.22;5112031;27;20047;-67
2021/07/14 00:58:38;;;;;;;16.23;11.20;;;;;;;21.02;66.36;94959.06;5091934;27;20042;-67
2021/07/14 01:01:05;;;;;;;14.80;11.63;;;;;;;21.09;65.82;94954.94;5108986;27;20394;-68
2021/07/14 01:03:39;;;;;;;17.88;11.88;;;;;;;21.13;65.74;94955.13;5110956;27;20112;-67
2021/07/14 01:06:11;;;;;;;12.00;10.85;;;;;;;21.15;65.27;94953.75;5110556;27;20511;-68
2021/07/14 01:09:07;;;;;;;13.43;12.02;;;;;;;21.13;66.29;94953.25;5112061;27;20048;-67
2021/07/14 01:11:37;;;;;;;12.30;11.07;;;;;;;21.10;65.62;94956.47;5110300;27;20528;-67
2021/07/14 01:14:22;;;;;;;14.27;11.40;;;;;;;21.04;65.49;94946.31;5112077;27;20043;-67
2021/07/14 01:17:00;;;;;;;15.05;12.05;;;;;;;21.01;65.39;94958.25;5110922;27;20039;-67
2021/07/14 01:20:09;;;;;;;13.77;11.43;;;;;;;21.06;65.62;94965.31;5111254;27;20145;-67
2021/07/14 01:22:55;;;;;;;14.05;12.43;;;;;;;20.98;65.87;94964.94;5109948;27;20381;-67
2021/07/14 01:25:33;;;;;;;14.60;13.10;;;;;;;20.97;65.84;94962.56;5112832;27;20051;-67
2021/07/14 01:28:01;;;;;;;15.90;12.77;;;;;;;20.91;66.50;94969.06;5109063;27;20048;-67
2021/07/14 01:30:28;;;;;;;16.17;13.77;;;;;;;20.87;66.31;94963.56;5108903;28;20040;-67
2021/07/14 01:32:56;;;;;;;13.32;11.95;;;;;;;20.83;66.28;94967.06;5113367;27;20538;-67
2021/07/14 01:35:31;;;;;;;13.60;12.20;;;;;;;20.79;66.76;94972.94;5109360;27;20046;-67
2021/07/14 01:37:59;;;;;;;16.05;13.25;;;;;;;20.74;66.84;94969.59;5110246;27;20044;-67
2021/07/14 01:40:27;;;;;;;14.25;11.75;;;;;;;20.68;67.10;94971.56;5107669;27;20031;-66
2021/07/14 01:43:00;;;;;;;13.27;11.80;;;;;;;20.67;67.12;94975.28;5109491;27;20039;-66
2021/07/14 01:45:29;;;;;;;17.42;12.45;;;;;;;20.63;67.58;94963.69;5089628;28;20051;-67
2021/07/14 01:47:59;;;;;;;12.70;11.40;;;;;;;20.66;67.07;94965.75;5111668;27;20113;-67
2021/07/14 01:50:29;;;;;;;14.85;13.23;;;;;;;20.61;67.24;94968.50;5110430;27;20059;-67
2021/07/14 01:52:57;;;;;;;15.50;12.05;;;;;;;20.50;67.22;94959.91;5110057;27;20043;-67
2021/07/14 01:55:25;;;;;;;15.50;12.55;;;;;;;20.50;67.61;94972.38;5108241;28;20047;-67
2021/07/14 01:57:54;;;;;;;13.48;12.15;;;;;;;20.33;68.76;94965.75;5110675;27;20054;-67
2021/07/14 02:00:21;;;;;;;17.33;12.82;;;;;;;20.23;68.82;94968.56;5110428;27;20046;-66
2021/07/14 02:03:18;;;;;;;16.35;12.48;;;;;;;20.28;68.83;94967.69;5108515;27;20035;-67
2021/07/14 02:05:42;;;;;;;19.15;12.38;;;;;;;20.23;69.03;94965.91;5106342;27;20122;-67
2021/07/14 02:08:08;;;;;;;14.77;11.85;;;;;;;20.21;69.27;94968.84;5107780;27;20131;-67
2021/07/14 02:10:38;;;;;;;16.83;13.20;;;;;;;20.15;69.78;94963.91;5108954;27;20051;-67
2021/07/14 02:13:06;;;;;;;13.40;12.10;;;;;;;20.09;70.41;94965.06;5108025;27;20100;-67
2021/07/14 02:15:37;;;;;;;14.68;12.77;;;;;;;20.04;70.56;94969.38;5107084;28;20067;-67
2021/07/14 02:18:10;;;;;;;15.00;12.98;;;;;;;19.95;71.19;94968.44;5107304;28;20091;-67
2021/07/14 02:20:37;;;;;;;15.93;14.05;;;;;;;19.86;72.30;94970.13;5107411;27;20041;-67
2021/07/14 02:23:05;;;;;;;18.25;14.00;;;;;;;19.85;72.14;94968.59;5106287;27;20039;-67
2021/07/14 02:25:33;;;;;;;14.50;13.02;;;;;;;19.88;71.37;94970.66;5107510;27;20054;-67
2021/07/14 02:28:01;;;;;;;16.27;12.93;;;;;;;19.88;72.13;94970.66;5107406;27;20035;-67
2021/07/14 02:30:28;;;;;;;14.52;13.05;;;;;;;19.92;70.77;94974.28;5088738;28;20036;-67
2021/07/14 02:32:59;;;;;;;16.88;14.55;;;;;;;19.96;71.29;94985.09;5106785;27;20739;-67
2021/07/14 02:35:28;;;;;;;17.55;12.80;;;;;;;20.00;70.81;94992.13;5105659;27;20047;-67
2021/07/14 02:38:09;;;;;;;16.40;13.27;;;;;;;20.03;70.74;94993.44;5105485;27;20050;-67
2021/07/14 02:41:07;;;;;;;14.63;13.02;;;;;;;20.08;70.69;94990.72;5105378;27;20795;-67
2021/07/14 02:43:37;;;;;;;16.52;12.70;;;;;;;20.05;70.78;94997.34;5105027;27;20524;-67
2021/07/14 02:46:11;;;;;;;20.55;13.63;;;;;;;20.04;70.63;94993.16;5108046;27;20044;-67
2021/07/14 02:48:38;;;;;;;17.02;12.50;;;;;;;20.08;70.41;94989.91;5107753;27;20040;-67
2021/07/14 02:51:07;;;;;;;16.63;12.85;;;;;;;20.03;71.20;94994.22;5105773;27;20507;-67
2021/07/14 02:53:45;;;;;;;17.33;13.43;;;;;;;19.96;71.40;94993.78;5106116;28;20040;-67
2021/07/14 02:56:18;;;;;;;17.45;12.73;;;;;;;19.86;71.81;94986.00;5105148;27;20062;-67
2021/07/14 02:58:51;;;;;;;16.80;12.05;;;;;;;19.87;71.84;95000.78;5087681;28;20058;-66
2021/07/14 03:01:19;;;;;;;23.38;15.18;;;;;;;19.83;72.11;94991.88;5105419;28;20032;-67
2021/07/14 03:03:51;;;;;;;15.23;13.68;;;;;;;19.81;71.92;95001.94;5107167;27;20535;-67
2021/07/14 03:06:19;;;;;;;15.38;13.35;;;;;;;19.86;71.84;94993.91;5105819;27;20047;-67
2021/07/14 03:08:49;;;;;;;16.35;14.68;;;;;;;19.89;71.95;94993.34;5104864;28;20051;-67
2021/07/14 03:11:18;;;;;;;23.63;13.05;;;;;;;19.88;71.46;94997.09;5106524;28;20042;-67
2021/07/14 03:13:47;;;;;;;22.40;13.45;;;;;;;19.74;72.17;94980.38;5108440;27;20404;-67
2021/07/14 03:16:17;;;;;;;15.63;13.80;;;;;;;19.81;71.94;94996.66;5105635;27;20039;-67
2021/07/14 03:18:48;;;;;;;14.57;12.65;;;;;;;19.80;72.12;94995.06;5106756;28;20115;-67
2021/07/14 03:21:15;;;;;;;15.20;13.50;;;;;;;19.76;72.71;95002.00;5106795;28;20104;-67
2021/07/14 03:23:43;;;;;;;17.77;12.88;;;;;;;19.76;72.56;94994.06;5107335;27;20496;-67
2021/07/14 03:26:10;;;;;;;17.70;13.02;;;;;;;19.85;71.93;95005.59;5107014;28;20401;-67
2021/07/14 03:28:39;;;;;;;21.83;12.68;;;;;;;19.78;73.14;95003.28;5110299;27;20046;-67
2021/07/14 03:31:07;;;;;;;16.80;14.30;;;;;;;19.78;73.71;95013.06;5108781;28;20036;-67
2021/07/14 03:33:35;;;;;;;14.52;13.07;;;;;;;19.82;72.84;95011.44;5108887;27;20048;-68
2021/07/14 03:36:04;;;;;;;20.60;14.40;;;;;;;19.82;73.21;95008.78;5107054;28;20043;-67
2021/07/14 03:38:32;;;;;;;14.98;13.48;;;;;;;19.86;72.98;95012.41;5088656;28;20051;-67
2021/07/14 03:41:00;;;;;;;21.17;14.15;;;;;;;19.89;73.20;95019.00;5105312;28;20038;-67
2021/07/14 03:43:29;;;;;;;17.17;13.38;;;;;;;19.89;74.26;95022.44;5107072;28;20124;-67
2021/07/14 03:45:58;;;;;;;18.23;13.27;;;;;;;19.79;74.92;95006.69;5107079;28;20036;-67
2021/07/14 03:48:30;;;;;;;15.30;12.82;;;;;;;19.79;75.30;95014.63;5109482;28;20133;-67
2021/07/14 03:50:58;;;;;;;16.90;12.98;;;;;;;19.83;75.28;95013.00;5106802;28;20035;-67
2021/07/14 03:53:25;;;;;;;14.95;13.45;;;;;;;19.91;75.03;95015.00;5110780;27;20390;-67
2021/07/14 03:55:52;;;;;;;18.55;13.65;;;;;;;19.95;75.28;95023.94;5110298;27;20444;-66
2021/07/14 03:58:21;;;;;;;18.35;12.98;;;;;;;20.03;75.05;95011.94;5112305;27;20047;-67
2021/07/14 04:00:49;;;;;;;15.07;12.63;;;;;;;20.12;74.58;95012.09;5107800;27;20039;-67
2021/07/14 04:03:21;;;;;;;17.67;12.75;;;;;;;20.23;74.64;95018.78;5108675;27;20043;-67
2021/07/14 04:05:55;;;;;;;19.95;14.20;;;;;;;20.30;74.53;95029.78;5109470;27;20560;-67
2021/07/14 04:08:28;;;;;;;14.75;12.70;;;;;;;20.37;74.42;95030.22;5112594;27;20044;-67
2021/07/14 04:10:54;;;;;;;16.23;12.85;;;;;;;20.28;75.33;95005.50;5109998;27;20031;-67
2021/07/14 04:13:21;;;;;;;15.63;13.30;;;;;;;20.37;75.84;95019.63;5092516;28;20043;-67
2021/07/14 04:15:48;;;;;;;20.05;12.68;;;;;;;20.33;75.52;95023.94;5093989;28;20440;-67
2021/07/14 04:18:15;;;;;;;16.10;11.70;;;;;;;20.34;75.27;95035.28;5112086;27;20092;-66
2021/07/14 04:20:42;;;;;;;18.90;13.35;;;;;;;20.48;75.27;95036.13;5109056;27;20036;-67
2021/07/14 04:23:09;;;;;;;15.13;13.13;;;;;;;20.53;75.49;95027.34;5110154;27;20043;-67
2021/07/14 04:25:36;;;;;;;23.95;16.55;;;;;;;20.58;74.93;95019.31;5108918;27;20040;-67
2021/07/14 04:28:04;;;;;;;26.08;16.35;;;;;;;20.70;74.98;95032.13;5108343;27;20039;-67
2021/07/14 04:30:30;;;;;;;21.00;16.13;;;;;;;20.77;75.24;95035.97;5109485;27;20046;-67
2021/07/14 04:32:57;;;;;;;23.25;15.88;;;;;;;20.85;74.36;95036.38;5107953;28;20055;-67
2021/07/14 04:35:24;;;;;;;24.80;16.23;;;;;;;20.86;74.57;95019.44;5109295;27;20505;-67
2021/07/14 04:37:52;;;;;;;24.20;16.67;;;;;;;21.08;73.97;95038.09;5108838;27;20051;-67
2021/07/14 04:40:19;;;;;;;19.75;16.13;;;;;;;21.15;74.49;95043.78;5106171;27;20040;-67
2021/07/14 04:42:46;;;;;;;24.60;16.40;;;;;;;21.18;75.17;95047.72;5107677;27;20036;-67
2021/07/14 04:45:12;;;;;;;29.98;16.08;;;;;;;21.24;75.43;95051.06;5108112;27;20047;-68
2021/07/14 04:47:39;;;;;;;28.73;15.00;;;;;;;21.36;74.15;95054.03;5106979;28;20055;-67
2021/07/14 04:50:07;;;;;;;18.35;13.65;;;;;;;21.44;72.72;95049.91;5108175;27;20032;-67
2021/07/14 04:52:34;;;;;;;14.18;12.68;;;;;;;21.39;70.91;95050.75;5089382;28;20728;-68
2021/07/14 04:55:01;;;;;;;14.07;12.57;;;;;;;21.47;71.18;95050.13;5109989;27;20043;-67
2021/07/14 04:57:27;;;;;;;16.23;11.80;;;;;;;21.49;71.21;95053.25;5110029;27;20047;-67
2021/07/14 04:59:54;;;;;;;14.32;12.55;;;;;;;21.47;71.87;95050.13;5110019;27;20050;-67
2021/07/14 05:02:25;;;;;;;15.75;12.70;;;;;;;21.62;71.01;95050.91;5109308;28;20447;-67
2021/07/14 05:04:52;;;;;;;16.02;12.82;;;;;;;21.72;71.16;95056.00;5109618;27;20074;-68
2021/07/14 05:07:19;;;;;;;14.77;12.43;;;;;;;21.82;70.21;95061.09;5114359;27;20443;-68
2021/07/14 05:09:45;;;;;;;26.30;12.88;;;;;;;21.90;69.57;95057.75;5111074;27;20549;-67
2021/07/14 05:12:12;;;;;;;16.48;12.27;;;;;;;22.04;70.25;95062.25;5108768;27;20047;-67
2021/07/14 05:14:39;;;;;;;25.73;12.02;;;;;;;22.16;70.14;95062.50;5110180;27;20035;-67
2021/07/14 05:17:06;;;;;;;15.80;12.35;;;;;;;22.24;69.21;95067.13;5108509;27;20055;-67
2021/07/14 05:19:32;;;;;;;17.83;12.60;;;;;;;22.35;69.32;95067.72;5112395;27;20524;-68
2021/07/14 05:21:59;;;;;;;24.60;12.68;;;;;;;22.47;69.55;95067.16;5108023;28;20035;-67
2021/07/14 05:24:26;;;;;;;14.43;11.65;;;;;;;22.58;68.56;95067.72;5109575;27;20035;-67
2021/07/14 05:26:53;;;;;;;14.93;12.57;;;;;;;22.65;67.46;95071.53;5108045;28;20052;-67
2021/07/14 05:29:20;;;;;;;16.98;12.30;;;;;;;22.63;67.41;95057.75;5090263;28;20463;-67
2021/07/14 05:31:47;;;;;;;19.73;12.52;;;;;;;22.90;67.29;95072.81;5106847;28;20058;-67
2021/07/14 05:34:14;;;;;;;18.30;12.65;;;;;;;23.00;65.49;95070.97;5106424;27;20047;-67
2021/07/14 05:36:41;;;;;;;17.73;13.48;;;;;;;23.09;65.25;95069.97;5107061;27;20536;-67
2021/07/14 05:39:08;;;;;;;15.98;12.00;;;;;;;23.18;64.21;95066.56;5108755;27;20442;-68
2021/07/14 05:41:36;;;;;;;16.23;12.98;;;;;;;23.21;65.04;95061.44;5106547;27;20047;-67
2021/07/14 05:44:03;;;;;;;18.15;12.13;;;;;;;23.35;65.47;95060.56;5089642;28;20047;-68
2021/07/14 05:46:32;;;;;;;18.02;12.50;;;;;;;23.41;64.92;95057.47;5110250;27;20386;-68
2021/07/14 05:49:02;;;;;;;16.00;12.50;;;;;;;23.66;64.40;95065.84;5106483;27;20493;-68
2021/07/14 05:51:31;;;;;;;18.25;11.45;;;;;;;23.78;63.99;95076.66;5107513;27;20043;-68
2021/07/14 05:53:59;;;;;;;14.00;12.10;;;;;;;23.94;64.20;95076.25;5107567;27;20042;-68
2021/07/14 05:56:26;;;;;;;15.70;12.40;;;;;;;24.05;62.86;95067.66;5106954;27;20569;-67
2021/07/14 05:58:53;;;;;;;14.00;11.82;;;;;;;24.14;61.63;95070.34;5108961;27;20043;-67
2021/07/14 06:01:21;;;;;;;16.35;10.75;;;;;;;24.27;60.44;95075.84;5107600;27;20478;-68
2021/07/14 06:03:49;;;;;;;11.90;10.70;;;;;;;24.37;60.51;95078.19;5109405;27;20035;-68
2021/07/14 06:06:16;;;;;;;19.90;11.32;;;;;;;24.52;62.88;95085.69;5104985;27;20041;-66
2021/07/14 06:08:43;;;;;;;16.17;11.38;;;;;;;24.65;60.67;95075.25;5092690;27;20504;-65
2021/07/14 06:11:10;;;;;;;13.65;11.45;;;;;;;24.75;58.95;95082.91;5090731;28;20032;-66
2021/07/14 06:13:37;;;;;;;14.95;11.13;;;;;;;24.83;59.82;95084.81;5108010;27;20035;-66
2021/07/14 06:16:04;;;;;;;13.85;10.50;;;;;;;24.90;59.39;95069.13;5108232;27;20084;-66
2021/07/14 06:18:32;;;;;;;14.50;10.68;;;;;;;25.07;59.29;95072.84;5108841;27;20043;-66
2021/07/14 06:20:58;;;;;;;13.55;10.23;;;;;;;25.16;57.65;95077.03;5109459;27;20409;-66
2021/07/14 06:23:25;;;;;;;14.75;10.25;;;;;;;25.30;57.85;95076.88;5110535;27;20497;-65
2021/07/14 06:25:54;;;;;;;15.30;10.52;;;;;;;25.46;57.10;95071.00;5109076;27;20036;-66
2021/07/14 06:28:22;;;;;;;19.42;10.68;;;;;;;25.58;58.19;95079.13;5106436;28;20047;-66
2021/07/14 06:30:49;;;;;;;12.40;9.68;;;;;;;25.70;56.26;95079.22;5110499;27;21978;-66
2021/07/14 06:33:16;;;;;;;19.98;10.82;;;;;;;25.81;55.25;95073.53;5108323;27;20043;-67
2021/07/14 06:35:44;;;;;;;12.75;9.80;;;;;;;25.94;55.11;95084.00;5106256;27;20060;-67
2021/07/14 06:38:11;;;;;;;13.52;10.25;;;;;;;25.97;54.26;95082.56;5109948;27;20092;-67
2021/07/14 06:40:38;;;;;;;29.15;11.55;;;;;;;26.03;54.79;95081.28;5104677;28;20047;-65
2021/07/14 06:43:07;;;;;;;26.77;10.20;;;;;;;26.12;54.57;95079.34;5109006;27;20520;-68
2021/07/14 06:45:35;;;;;;;19.02;10.18;;;;;;;26.33;53.92;95073.25;5108456;27;20480;-68
2021/07/14 06:48:02;;;;;;;18.30;10.50;;;;;;;26.38;52.84;95070.38;5107078;27;20044;-68
2021/07/14 06:50:29;;;;;;;16.38;10.18;;;;;;;26.38;52.61;95075.72;5108844;27;20056;-68
2021/07/14 06:52:56;;;;;;;17.67;9.77;;;;;;;26.37;53.44;95068.81;5111697;27;20070;-68
2021/07/14 06:55:24;;;;;;;14.32;10.05;;;;;;;26.51;53.28;95063.97;5110219;27;20047;-68
2021/07/14 06:57:51;;;;;;;17.30;11.05;;;;;;;26.66;51.65;95069.88;5111113;27;20138;-68
2021/07/14 07:00:18;;;;;;;16.67;10.77;;;;;;;26.80;51.17;95062.34;5106362;28;20044;-68
2021/07/14 07:02:45;;;;;;;14.25;10.60;;;;;;;26.94;51.03;95063.94;5108086;27;20040;-68
2021/07/14 07:05:13;;;;;;;10.57;9.57;;;;;;;27.06;51.20;95061.31;5107940;27;20156;-68
2021/07/14 07:07:40;;;;;;;17.00;10.18;;;;;;;27.22;49.80;95067.56;5109534;27;20031;-68
2021/07/14 07:10:08;;;;;;;14.00;10.32;;;;;;;27.29;51.24;95068.97;5109181;27;20040;-68
2021/07/14 07:12:35;;;;;;;16.63;10.30;;;;;;;27.26;49.57;95055.16;5105481;28;20050;-67
2021/07/14 07:15:03;;;;;;;13.45;9.52;;;;;;;27.44;50.30;95060.28;5107294;27;20044;-68
2021/07/14 07:17:30;;;;;;;12.35;9.80;;;;;;;27.66;50.54;95056.41;5107128;27;20048;-68
2021/07/14 07:19:57;;;;;;;10.75;9.32;;;;;;;27.78;50.72;95063.63;5090365;27;20042;-66
2021/07/14 07:22:23;;;;;;;13.45;9.60;;;;;;;27.97;49.72;95060.44;5111336;27;20454;-65
2021/07/14 07:24:50;;;;;;;12.60;10.13;;;;;;;27.95;48.94;95066.13;5106246;27;20051;-65
2021/07/14 07:27:17;;;;;;;24.55;11.25;;;;;;;27.92;49.77;95048.06;5108200;27;20040;-65
2021/07/14 07:29:44;;;;;;;12.98;9.75;;;;;;;28.05;47.18;95066.78;5109524;28;20043;-65
2021/07/14 07:32:11;;;;;;;12.60;10.23;;;;;;;28.06;46.43;95063.00;5111409;27;20105;-65
2021/07/14 07:34:38;;;;;;;14.48;9.30;;;;;;;28.22;46.99;95053.91;5105795;28;20048;-65
2021/07/14 07:37:09;;;;;;;12.93;9.63;;;;;;;28.35;48.44;95043.94;5106249;28;20051;-65
2021/07/14 07:39:36;;;;;;;19.00;9.88;;;;;;;28.61;48.03;95061.53;5107615;28;20043;-65
2021/07/14 07:42:03;;;;;;;15.95;10.93;;;;;;;28.78;45.57;95055.88;5103285;28;20456;-66
2021/07/14 07:44:30;;;;;;;14.02;9.07;;;;;;;28.90;46.65;95051.56;5090765;28;20051;-65
2021/07/14 07:46:57;;;;;;;14.35;10.45;;;;;;;28.93;44.78;95050.91;5107729;28;20063;-65
2021/07/14 07:49:25;;;;;;;22.45;10.30;;;;;;;29.03;43.23;95055.75;5108360;28;20501;-65
2021/07/14 07:51:52;;;;;;;81.28;14.00;;;;;;;29.13;46.06;95055.25;5110102;28;20461;-66
2021/07/14 07:54:19;;;;;;;22.00;9.65;;;;;;;29.23;43.63;95045.19;5088453;28;20156;-66
2021/07/14 07:56:46;;;;;;;29.98;11.20;;;;;;;29.42;43.32;95055.22;5111194;28;21486;-66
2021/07/14 07:59:13;;;;;;;15.43;10.20;;;;;;;29.51;44.57;95048.56;5089709;28;20051;-66
2021/07/14 08:01:40;;;;;;;21.60;10.30;;;;;;;29.60;42.17;95055.63;5104856;28;20456;-67
2021/07/14 08:04:08;;;;;;;14.18;9.88;;;;;;;29.58;41.35;95047.16;5109762;28;20099;-66
2021/07/14 08:06:35;;;;;;;10.15;9.10;;;;;;;29.74;41.43;95045.25;5103929;28;20050;-66
2021/07/14 08:09:05;;;;;;;10.63;9.30;;;;;;;29.81;44.25;95048.13;5108882;28;20043;-66
2021/07/14 08:11:32;;;;;;;19.67;10.48;;;;;;;29.95;42.61;95038.84;5105410;28;20062;-66
2021/07/14 08:13:59;;;;;;;18.73;9.30;;;;;;;30.06;42.18;95045.22;5108044;28;20054;-66
2021/07/14 08:16:28;;;;;;;19.73;9.80;;;;;;;30.04;42.33;95031.38;5107707;28;20093;-65
2021/07/14 08:18:56;;;;;;;15.48;9.13;;;;;;;30.08;41.33;95048.31;5103310;28;20038;-66
2021/07/14 08:21:23;;;;;;;19.45;9.73;;;;;;;30.03;40.01;95040.53;5102473;28;20039;-66
2021/07/14 08:23:51;;;;;;;12.25;8.18;;;;;;;30.21;41.25;95039.00;5105319;28;20079;-68
2021/07/14 08:26:18;;;;;;;19.02;8.85;;;;;;;30.19;39.27;95038.59;5107791;28;20032;-68
2021/07/14 08:28:44;;;;;;;12.90;8.85;;;;;;;30.38;41.01;95035.16;5107199;28;20044;-68
2021/07/14 08:31:11;;;;;;;10.18;9.00;;;;;;;30.66;40.78;95029.56;5107760;28;20035;-68
2021/07/14 08:33:39;;;;;;;15.70;10.00;;;;;;;30.96;40.01;95026.31;5106153;28;20047;-68
2021/07/14 08:36:05;;;;;;;27.88;9.57;;;;;;;31.15;38.40;95027.38;5107736;28;20047;-68
2021/07/14 08:38:32;;;;;;;17.70;8.65;;;;;;;30.90;39.50;95032.28;5108324;27;20043;-68
2021/07/14 08:41:00;;;;;;;12.38;8.50;;;;;;;31.00;39.71;95029.84;5112737;27;20047;-69
2021/07/14 08:43:33;;;;;;;14.43;8.95;;;;;;;31.23;39.95;95029.06;5094368;28;20036;-68
2021/07/14 08:46:00;;;;;;;14.43;9.15;;;;;;;31.34;40.88;95024.63;5111728;27;20493;-68
2021/07/14 08:48:28;;;;;;;9.80;8.80;;;;;;;31.59;37.54;95029.69;5106663;28;20044;-68
2021/07/14 08:50:58;;;;;;;20.52;8.20;;;;;;;31.62;37.45;95023.56;5105420;27;20042;-67
2021/07/14 08:53:26;;;;;;;17.67;8.68;;;;;;;31.90;36.44;95017.06;5107198;27;20046;-67
2021/07/14 08:55:55;;;;;;;12.80;7.75;;;;;;;32.16;35.53;95025.13;5108059;27;21326;-67
2021/07/14 08:58:24;;;;;;;8.55;7.38;;;;;;;32.19;37.11;95024.38;5107573;27;20055;-67
2021/07/14 09:00:53;;;;;;;8.63;7.60;;;;;;;32.28;35.67;95020.66;5103480;27;20040;-67
2021/07/14 09:03:21;;;;;;;12.25;8.00;;;;;;;32.55;34.04;95022.13;5110720;27;20051;-67
2021/07/14 09:05:48;;;;;;;9.35;8.30;;;;;;;32.57;35.33;95022.56;5106842;27;20093;-67
2021/07/14 09:08:15;;;;;;;13.23;8.45;;;;;;;32.71;36.48;95026.56;5106934;27;20492;-67
2021/07/14 09:10:45;;;;;;;13.90;6.82;;;;;;;32.78;33.60;95021.25;5108329;27;20420;-67
2021/07/14 09:13:13;;;;;;;8.73;7.00;;;;;;;32.76;30.09;95018.16;5111830;27;20535;-68
2021/07/14 09:15:51;;;;;;;12.52;7.18;;;;;;;32.94;31.56;95012.94;5109273;27;20118;-67
2021/07/14 09:18:22;;;;;;;14.32;6.28;;;;;;;33.20;30.88;95022.84;5111233;27;20094;-66
2021/07/14 09:20:49;;;;;;;7.57;6.50;;;;;;;33.46;29.39;95021.16;5108780;27;20043;-67
2021/07/14 09:23:20;;;;;;;9.38;6.53;;;;;;;33.74;29.33;95025.22;5109094;27;20040;-67
2021/07/14 09:25:56;;;;;;;10.02;7.07;;;;;;;33.63;30.22;95019.72;5102759;27;20040;-67
2021/07/14 09:28:34;;;;;;;9.43;6.78;;;;;;;33.84;29.37;95019.13;5109903;27;20118;-67
2021/07/14 09:31:05;;;;;;;11.45;7.15;;;;;;;33.76;30.36;95028.31;5109783;27;20399;-67
2021/07/14 09:33:32;;;;;;;10.70;6.30;;;;;;;33.45;29.47;95024.97;5109936;27;20051;-67
2021/07/14 09:36:00;;;;;;;8.00;6.32;;;;;;;33.57;27.79;95022.00;5112634;27;20059;-66
2021/07/14 09:38:33;;;;;;;7.63;6.50;;;;;;;33.76;29.06;95020.22;5107272;27;20035;-68
2021/07/14 09:41:04;;;;;;;10.32;6.80;;;;;;;33.96;27.76;95021.50;5110012;27;20043;-68
2021/07/14 09:43:42;;;;;;;12.60;6.68;;;;;;;34.13;27.23;95014.66;5106078;27;20039;-68
2021/07/14 09:46:17;;;;;;;10.68;6.05;;;;;;;33.89;27.11;95026.88;5107315;27;20047;-68
2021/07/14 09:48:49;;;;;;;8.82;5.75;;;;;;;34.13;26.72;95024.69;5108852;27;20048;-67
2021/07/14 09:51:21;;;;;;;8.13;5.63;;;;;;;34.22;28.50;95033.25;5105794;27;20075;-68
2021/07/14 09:53:51;;;;;;;10.63;5.78;;;;;;;34.26;26.95;95024.00;5106903;27;20043;-68
2021/07/14 09:56:25;;;;;;;14.07;6.03;;;;;;;34.58;25.40;95022.59;5104149;27;20061;-68
2021/07/14 09:59:10;;;;;;;8.02;6.03;;;;;;;34.75;25.23;95016.47;5105143;27;20051;-68
2021/07/14 10:01:49;;;;;;;10.90;6.18;;;;;;;35.16;24.23;95013.44;5107863;27;20051;-68
2021/07/14 10:04:28;;;;;;;6.22;5.35;;;;;;;35.10;23.82;95020.41;5108079;27;20043;-68
2021/07/14 10:07:05;;;;;;;9.38;5.63;;;;;;;35.30;22.69;95023.56;5106916;27;20480;-68
2021/07/14 10:09:32;;;;;;;8.10;6.03;;;;;;;35.42;25.50;95019.69;5110870;27;20039;-67
2021/07/14 10:12:24;;;;;;;9.18;5.07;;;;;;;35.57;23.22;95021.22;5106794;27;20051;-68
2021/07/14 10:14:51;;;;;;;6.80;5.53;;;;;;;35.54;23.92;95016.56;5092950;27;20512;-67
2021/07/14 10:17:41;;;;;;;11.65;5.82;;;;;;;35.61;26.16;95019.28;5105385;28;20059;-67
2021/07/14 10:20:37;;;;;;;7.30;5.03;;;;;;;35.46;26.30;95009.63;5106343;27;20031;-68
2021/07/14 10:23:09;;;;;;;9.82;5.90;;;;;;;35.71;26.06;95011.56;5106041;27;20058;-68
2021/07/14 10:25:38;;;;;;;8.43;5.03;;;;;;;35.93;23.49;94994.09;5100591;28;20039;-68
2021/07/14 10:28:06;;;;;;;8.50;5.68;;;;;;;35.94;24.90;94995.66;5106667;27;20052;-68
2021/07/14 10:30:33;;;;;;;6.00;5.50;;;;;;;35.90;23.36;94999.53;5104397;28;20043;-68
2021/07/14 10:33:02;;;;;;;8.00;5.53;;;;;;;35.77;22.94;94999.19;5108801;27;20048;-68
2021/07/14 10:35:31;;;;;;;9.95;5.80;;;;;;;36.11;22.89;94993.28;5109953;27;20100;-68
2021/07/14 10:38:17;;;;;;;5.85;5.25;;;;;;;36.40;25.01;94998.63;5101423;28;20108;-68
2021/07/14 10:40:45;;;;;;;9.50;5.28;;;;;;;36.77;23.21;94997.31;5108855;27;20039;-68
2021/07/14 10:43:21;;;;;;;21.45;5.88;;;;;;;36.99;23.38;94990.59;5104387;27;20074;-67
2021/07/14 10:45:50;;;;;;;10.18;5.63;;;;;;;36.55;23.23;94994.69;5108230;27;20096;-68
2021/07/14 10:48:20;;;;;;;8.45;5.53;;;;;;;36.52;24.52;94987.34;5110144;27;20505;-67
2021/07/14 10:50:48;;;;;;;8.68;5.55;;;;;;;36.92;22.88;94990.63;5105576;27;20402;-68
2021/07/14 10:53:20;;;;;;;10.73;5.70;;;;;;;37.27;22.58;94967.88;5106974;27;20114;-68
2021/07/14 10:55:48;;;;;;;6.97;4.93;;;;;;;37.35;23.40;94979.47;5107586;27;20524;-68
2021/07/14 10:58:18;;;;;;;7.53;5.40;;;;;;;36.65;24.52;94982.25;5105508;27;20047;-68
2021/07/14 11:00:46;;;;;;;7.50;6.35;;;;;;;37.01;23.55;94982.81;5106350;27;20047;-68
2021/07/14 11:03:38;;;;;;;27.98;5.68;;;;;;;36.72;20.96;94974.84;5105317;27;20723;-68
2021/07/14 11:06:09;;;;;;;9.77;5.38;;;;;;;36.93;22.12;94978.59;5086342;28;20036;-68
2021/07/14 11:08:49;;;;;;;11.65;5.20;;;;;;;37.31;21.32;94973.28;5106196;27;20055;-68
2021/07/14 11:11:16;;;;;;;10.85;5.97;;;;;;;37.38;22.13;94973.22;5105514;28;20043;-68
2021/07/14 11:13:45;;;;;;;11.45;5.50;;;;;;;37.71;21.77;94973.75;5109084;27;20451;-68
2021/07/14 11:16:35;;;;;;;6.95;5.50;;;;;;;37.80;20.85;94979.47;5104782;28;20539;-68
2021/07/14 11:19:12;;;;;;;8.48;5.07;;;;;;;37.64;21.65;94974.59;5105994;27;20046;-68
2021/07/14 11:21:54;;;;;;;5.10;4.40;;;;;;;37.47;23.45;94968.13;5105673;28;20039;-67
2021/07/14 11:24:37;;;;;;;6.53;4.90;;;;;;;37.69;21.41;94981.53;5104326;28;20039;-67
2021/07/14 11:27:26;;;;;;;7.50;4.40;;;;;;;37.74;20.78;94972.91;5105699;28;20501;-68
2021/07/14 11:30:16;;;;;;;7.82;4.93;;;;;;;37.07;20.85;94964.91;5091283;28;20135;-67
2021/07/14 11:32:43;;;;;;;8.18;4.65;;;;;;;37.21;20.60;94968.75;5105206;28;20104;-68
2021/07/14 11:35:22;;;;;;;6.88;4.50;;;;;;;38.01;18.27;94966.81;5087602;28;20525;-65
2021/07/14 11:37:49;;;;;;;8.57;4.45;;;;;;;38.54;17.63;94962.69;5105059;28;20130;-65
2021/07/14 11:40:23;;;;;;;5.60;4.47;;;;;;;38.42;18.23;94960.53;5107296;27;20110;-65
2021/07/14 11:43:02;;;;;;;7.70;4.70;;;;;;;38.30;18.45;94947.47;5103436;28;20516;-67
2021/07/14 11:45:36;;;;;;;5.47;4.50;;;;;;;38.25;18.81;94957.63;5105782;28;20039;-65